createdAt,value
2022-11-29T00:01:52.343Z,41.50
2022-11-29T00:04:20.224Z,45.10
2022-11-29T00:06:48.116Z,45.60
2022-11-29T00:09:15.870Z,46.50
2022-11-29T00:12:02.526Z,42.00
2022-11-29T00:14:30.358Z,42.30
2022-11-29T00:17:01.984Z,46.50
2022-11-29T00:19:31.363Z,44.50
2022-11-29T00:22:00.033Z,42.30
2022-11-29T00:24:27.989Z,44.70
2022-11-29T00:26:55.736Z,45.40
2022-11-29T00:29:23.474Z,47.30
2022-11-29T00:31:51.252Z,42.90
2022-11-29T00:34:19.244Z,41.80
2022-11-29T00:36:47.168Z,40.60
2022-11-29T00:39:16.457Z,43.90
2022-11-29T00:41:44.245Z,42.40
2022-11-29T00:44:16.732Z,41.80
2022-11-29T00:46:47.900Z,43.40
2022-11-29T00:49:15.867Z,44.40
2022-11-29T00:51:43.816Z,43.50
2022-11-29T00:54:11.655Z,43.70
2022-11-29T00:56:39.432Z,43.40
2022-11-29T00:59:07.212Z,43.60
2022-11-29T01:01:35.103Z,44.30
2022-11-29T01:04:02.859Z,41.90
2022-11-29T01:06:30.609Z,40.50
2022-11-29T01:08:58.832Z,42.00
2022-11-29T01:11:27.678Z,40.30
2022-11-29T01:13:56.983Z,40.30
2022-11-29T01:16:24.944Z,36.40
2022-11-29T01:18:52.930Z,36.70
2022-11-29T01:21:21.902Z,37.30
2022-11-29T01:23:50.443Z,38.20
2022-11-29T01:26:20.167Z,37.10
2022-11-29T01:28:49.192Z,39.20
2022-11-29T01:31:18.415Z,37.70
2022-11-29T01:33:47.896Z,37.50
2022-11-29T01:36:15.921Z,37.00
2022-11-29T01:38:43.845Z,37.50
2022-11-29T01:41:20.466Z,36.20
2022-11-29T01:44:05.960Z,35.60
2022-11-29T01:46:35.282Z,35.30
2022-11-29T01:49:23.958Z,38.50
2022-11-29T01:51:53.314Z,35.20
2022-11-29T01:54:21.787Z,36.80
2022-11-29T01:56:50.313Z,35.30
2022-11-29T01:59:20.393Z,37.40
2022-11-29T02:01:48.108Z,35.90
2022-11-29T02:06:58.693Z,38.40
2022-11-29T02:09:26.605Z,33.70
2022-11-29T02:11:57.211Z,35.80
2022-11-29T02:14:24.937Z,37.10
2022-11-29T02:17:01.518Z,40.50
2022-11-29T02:19:41.844Z,34.90
2022-11-29T02:22:29.450Z,34.20
2022-11-29T02:25:17.412Z,37.00
2022-11-29T02:27:57.567Z,35.00
2022-11-29T02:30:25.358Z,36.20
2022-11-29T02:33:06.252Z,36.20
2022-11-29T02:35:43.372Z,33.30
2022-11-29T02:38:24.851Z,35.50
2022-11-29T02:40:52.509Z,37.50
2022-11-29T02:43:26.184Z,38.40
2022-11-29T02:46:03.245Z,34.70
2022-11-29T02:48:30.998Z,33.80
2022-11-29T02:51:02.808Z,37.00
2022-11-29T02:53:56.778Z,37.60
2022-11-29T02:56:36.541Z,33.30
2022-11-29T02:59:22.944Z,38.80
2022-11-29T03:02:06.345Z,36.00
2022-11-29T03:04:40.214Z,35.80
2022-11-29T03:07:26.613Z,32.80
2022-11-29T03:10:00.453Z,34.50
2022-11-29T03:12:35.986Z,34.00
2022-11-29T03:15:11.821Z,30.80
2022-11-29T03:17:39.543Z,34.40
2022-11-29T03:20:22.112Z,34.90
2022-11-29T03:23:20.163Z,34.20
2022-11-29T03:25:50.764Z,33.00
2022-11-29T03:28:20.163Z,36.80
2022-11-29T03:30:56.909Z,32.90
2022-11-29T03:33:24.623Z,31.20
2022-11-29T03:36:09.458Z,33.80
2022-11-29T03:38:40.349Z,30.20
2022-11-29T03:41:15.343Z,31.90
2022-11-29T03:43:53.340Z,31.10
2022-11-29T03:46:36.894Z,31.10
2022-11-29T03:49:34.024Z,32.50
2022-11-29T03:52:15.685Z,32.50
2022-11-29T03:54:57.028Z,29.80
2022-11-29T03:57:45.066Z,28.20
2022-11-29T04:00:13.439Z,31.90
2022-11-29T04:02:47.639Z,30.70
2022-11-29T04:05:30.766Z,33.50
2022-11-29T04:08:04.342Z,33.40
2022-11-29T04:10:32.140Z,34.80
2022-11-29T04:13:23.301Z,29.70
2022-11-29T04:16:10.180Z,34.70
2022-11-29T04:19:07.476Z,35.70
2022-11-29T04:21:53.476Z,33.10
2022-11-29T04:24:37.100Z,32.70
2022-11-29T04:27:23.642Z,35.60
2022-11-29T04:29:51.402Z,33.50
2022-11-29T04:32:33.267Z,33.80
2022-11-29T04:35:20.194Z,31.90
2022-11-29T04:37:47.995Z,30.40
2022-11-29T04:40:18.787Z,32.50
2022-11-29T04:42:55.894Z,36.40
2022-11-29T04:45:42.705Z,38.50
2022-11-29T04:48:33.530Z,36.90
2022-11-29T04:51:01.326Z,35.90
2022-11-29T04:53:41.271Z,37.40
2022-11-29T04:56:19.212Z,35.30
2022-11-29T04:59:04.711Z,34.70
2022-11-29T05:01:38.787Z,32.00
2022-11-29T05:06:54.330Z,35.30
2022-11-29T05:12:04.352Z,38.10
2022-11-29T05:14:42.270Z,36.90
2022-11-29T05:17:36.821Z,37.50
2022-11-29T05:20:23.631Z,36.30
2022-11-29T05:23:17.481Z,37.30
2022-11-29T05:25:52.767Z,32.10
2022-11-29T05:28:39.703Z,38.20
2022-11-29T05:31:21.449Z,39.00
2022-11-29T05:34:12.241Z,37.10
2022-11-29T05:36:58.615Z,35.20
2022-11-29T05:39:51.383Z,36.70
2022-11-29T05:42:28.396Z,34.00
2022-11-29T05:45:06.840Z,33.40
2022-11-29T05:47:42.406Z,31.70
2022-11-29T05:50:13.580Z,36.10
2022-11-29T05:52:57.562Z,37.90
2022-11-29T05:55:44.645Z,35.60
2022-11-29T05:58:28.616Z,34.00
2022-11-29T06:01:01.191Z,36.90
2022-11-29T06:03:37.704Z,36.00
2022-11-29T06:06:26.418Z,32.40
2022-11-29T06:09:01.394Z,28.80
2022-11-29T06:11:39.168Z,36.10
2022-11-29T06:14:19.178Z,34.50
2022-11-29T06:17:01.979Z,36.30
2022-11-29T06:19:32.958Z,36.80
2022-11-29T06:22:17.369Z,41.10
2022-11-29T06:25:05.023Z,33.00
2022-11-29T06:27:32.867Z,94.90
2022-11-29T06:30:27.815Z,82.90
2022-11-29T06:33:08.755Z,60.50
2022-11-29T06:35:40.859Z,38.80
2022-11-29T06:38:14.541Z,39.30
2022-11-29T06:40:50.435Z,71.60
2022-11-29T06:43:18.481Z,52.10
2022-11-29T06:45:49.104Z,48.20
2022-11-29T06:48:21.541Z,67.40
2022-11-29T06:51:09.881Z,44.10
2022-11-29T06:53:47.112Z,39.10
2022-11-29T06:56:21.247Z,79.90
2022-11-29T07:01:26.287Z,61.00
2022-11-29T07:04:00.439Z,58.50
2022-11-29T07:06:28.722Z,84.50
2022-11-29T07:08:59.643Z,56.40
2022-11-29T07:11:27.987Z,45.10
2022-11-29T07:13:56.046Z,41.50
2022-11-29T07:16:29.857Z,38.90
2022-11-29T07:18:57.886Z,40.70
2022-11-29T07:21:48.979Z,40.70
2022-11-29T07:24:16.891Z,45.10
2022-11-29T07:26:44.706Z,39.80
2022-11-29T07:29:19.330Z,43.90
2022-11-29T07:31:47.457Z,47.10
2022-11-29T07:34:32.529Z,41.80
2022-11-29T07:37:15.623Z,46.00
2022-11-29T07:40:06.827Z,43.30
2022-11-29T07:42:49.096Z,44.70
2022-11-29T07:45:21.657Z,43.30
2022-11-29T07:47:50.334Z,45.50
2022-11-29T07:50:18.122Z,46.50
2022-11-29T07:52:46.542Z,46.80
2022-11-29T07:55:18.691Z,45.60
2022-11-29T07:58:00.411Z,46.10
2022-11-29T08:00:34.504Z,52.00
2022-11-29T08:03:10.220Z,43.60
2022-11-29T08:05:48.183Z,44.80
2022-11-29T08:08:16.069Z,51.10
2022-11-29T08:10:43.901Z,50.10
2022-11-29T08:13:11.819Z,47.00
2022-11-29T08:15:46.590Z,44.50
2022-11-29T08:18:15.402Z,41.20
2022-11-29T08:20:43.382Z,55.20
2022-11-29T08:23:12.796Z,50.60
2022-11-29T08:25:40.786Z,66.80
2022-11-29T08:28:09.268Z,71.20
2022-11-29T08:30:37.603Z,62.30
2022-11-29T08:33:05.839Z,60.90
2022-11-29T08:35:34.402Z,51.70
2022-11-29T08:38:04.009Z,47.70
2022-11-29T08:40:31.865Z,49.10
2022-11-29T08:42:59.798Z,57.10
2022-11-29T08:45:31.560Z,54.50
2022-11-29T08:47:59.345Z,50.70
2022-11-29T08:50:27.358Z,47.80
2022-11-29T08:53:14.143Z,46.70
2022-11-29T08:55:46.668Z,45.80
2022-11-29T08:58:15.544Z,52.70
2022-11-29T09:00:46.449Z,56.60
2022-11-29T09:03:33.265Z,56.60
2022-11-29T09:06:12.163Z,62.20
2022-11-29T09:08:43.799Z,54.00
2022-11-29T09:11:16.226Z,46.40
2022-11-29T09:13:51.973Z,43.60
2022-11-29T09:16:21.727Z,44.50
2022-11-29T09:18:51.974Z,42.70
2022-11-29T09:21:20.640Z,46.80
2022-11-29T09:23:48.458Z,44.60
2022-11-29T09:26:17.458Z,44.90
2022-11-29T09:28:46.034Z,48.00
2022-11-29T09:31:17.536Z,46.30
2022-11-29T09:33:46.333Z,39.70
2022-11-29T09:36:15.360Z,39.90
2022-11-29T09:38:43.615Z,40.00
2022-11-29T09:41:24.032Z,41.60
2022-11-29T09:44:03.259Z,39.50
2022-11-29T09:46:43.811Z,37.80
2022-11-29T09:49:17.823Z,37.40
2022-11-29T09:54:24.497Z,36.80
2022-11-29T09:56:55.687Z,39.00
2022-11-29T09:59:27.971Z,44.10
2022-11-29T10:02:03.310Z,38.60
2022-11-29T10:04:36.527Z,35.20
2022-11-29T10:07:13.863Z,36.20
2022-11-29T10:09:41.870Z,40.60
2022-11-29T10:12:13.876Z,40.40
2022-11-29T10:14:48.528Z,34.10
2022-11-29T10:17:16.583Z,40.80
2022-11-29T10:19:46.980Z,37.10
2022-11-29T10:22:23.975Z,33.90
2022-11-29T10:24:54.507Z,32.70
2022-11-29T10:27:42.744Z,34.30
2022-11-29T10:30:15.361Z,34.60
2022-11-29T10:32:57.443Z,36.30
2022-11-29T10:35:25.231Z,34.40
2022-11-29T10:38:22.598Z,33.50
2022-11-29T10:40:46.983Z,32.60
2022-11-29T10:43:15.060Z,33.10
2022-11-29T10:45:50.309Z,36.50
2022-11-29T10:48:24.085Z,32.70
2022-11-29T10:50:52.791Z,32.40
2022-11-29T10:53:24.729Z,31.00
2022-11-29T10:56:11.694Z,34.20
2022-11-29T10:59:01.131Z,34.90
2022-11-29T11:01:30.574Z,37.60
2022-11-29T11:04:00.289Z,36.50
2022-11-29T11:06:41.780Z,38.10
2022-11-29T11:09:24.789Z,34.50
2022-11-29T11:11:53.493Z,34.30
2022-11-29T11:14:31.920Z,34.90
2022-11-29T11:17:26.425Z,34.10
2022-11-29T11:19:58.834Z,33.30
2022-11-29T11:22:27.723Z,42.70
2022-11-29T11:25:06.355Z,32.60
2022-11-29T11:27:35.729Z,28.70
2022-11-29T11:30:05.764Z,30.80
2022-11-29T11:32:33.725Z,31.90
2022-11-29T11:35:01.931Z,34.30
2022-11-29T11:37:33.767Z,32.90
2022-11-29T11:40:21.846Z,31.30
2022-11-29T11:42:49.765Z,38.20
2022-11-29T11:45:17.600Z,32.60
2022-11-29T11:47:52.929Z,31.40
2022-11-29T11:50:28.033Z,40.30
2022-11-29T11:52:59.770Z,30.50
2022-11-29T11:55:30.615Z,35.30
2022-11-29T11:58:08.987Z,32.40
2022-11-29T12:03:50.956Z,34.80
2022-11-29T12:06:38.356Z,35.50
2022-11-29T12:09:10.018Z,38.10
2022-11-29T12:11:44.472Z,36.40
2022-11-29T12:14:18.153Z,36.30
2022-11-29T12:16:48.168Z,33.30
2022-11-29T12:19:29.204Z,35.10
2022-11-29T12:21:59.763Z,33.50
2022-11-29T12:24:41.969Z,41.80
2022-11-29T12:27:11.194Z,36.50
2022-11-29T12:29:46.381Z,44.60
2022-11-29T12:32:17.649Z,33.80
2022-11-29T12:34:49.497Z,33.50
2022-11-29T12:37:36.418Z,34.40
2022-11-29T12:40:14.343Z,35.40
2022-11-29T12:42:48.200Z,31.60
2022-11-29T12:45:22.289Z,38.30
2022-11-29T12:47:56.410Z,39.10
2022-11-29T12:50:24.506Z,34.90
2022-11-29T12:53:11.130Z,37.20
2022-11-29T12:55:42.101Z,35.20
2022-11-29T12:58:09.815Z,39.10
2022-11-29T13:00:48.217Z,36.90
2022-11-29T13:03:36.397Z,37.30
2022-11-29T13:06:07.772Z,35.00
2022-11-29T13:08:35.650Z,43.80
2022-11-29T13:11:07.433Z,38.30
2022-11-29T13:13:47.104Z,40.70
2022-11-29T13:16:35.229Z,40.40
2022-11-29T13:19:08.075Z,42.20
2022-11-29T13:21:36.063Z,41.60
2022-11-29T13:24:13.084Z,38.50
2022-11-29T13:26:43.162Z,40.70
2022-11-29T13:29:17.847Z,53.60
2022-11-29T13:31:47.457Z,40.10
2022-11-29T13:34:30.871Z,65.90
2022-11-29T13:37:07.634Z,53.90
2022-11-29T13:39:39.618Z,48.70
2022-11-29T13:42:30.875Z,47.00
2022-11-29T13:45:14.310Z,57.60
2022-11-29T13:47:49.972Z,43.50
2022-11-29T13:50:37.178Z,35.80
2022-11-29T13:53:22.925Z,37.20
2022-11-29T13:56:02.807Z,35.20
2022-11-29T13:58:33.305Z,39.70
2022-11-29T14:01:09.467Z,38.60
2022-11-29T14:03:39.617Z,37.00
2022-11-29T14:06:10.292Z,40.10
2022-11-29T14:09:17.116Z,34.50
2022-11-29T14:11:44.836Z,35.50
2022-11-29T14:14:15.777Z,35.10
2022-11-29T14:16:43.639Z,31.90
2022-11-29T14:19:12.056Z,35.10
2022-11-29T14:21:58.865Z,53.00
2022-11-29T14:24:32.906Z,59.50
2022-11-29T14:29:47.621Z,63.40
2022-11-29T14:32:21.815Z,54.70
2022-11-29T14:37:46.842Z,64.70
2022-11-29T14:40:17.912Z,48.80
2022-11-29T14:42:47.961Z,40.00
2022-11-29T14:45:24.722Z,56.60
2022-11-29T14:47:52.750Z,51.40
2022-11-29T14:50:39.395Z,50.40
2022-11-29T14:53:25.592Z,56.20
2022-11-29T14:56:13.366Z,51.20
2022-11-29T14:58:41.120Z,41.60
2022-11-29T15:01:18.335Z,61.00
2022-11-29T15:03:47.820Z,57.00
2022-11-29T15:06:18.415Z,63.20
2022-11-29T15:08:53.990Z,74.60
2022-11-29T15:11:50.090Z,58.90
2022-11-29T15:14:37.027Z,90.60
2022-11-29T15:17:24.330Z,59.10
2022-11-29T15:20:11.549Z,60.80
2022-11-29T15:22:48.309Z,59.50
2022-11-29T15:25:23.807Z,66.80
2022-11-29T15:27:54.464Z,64.60
2022-11-29T15:30:39.468Z,93.80
2022-11-29T15:33:08.851Z,226.00
2022-11-29T15:35:37.794Z,133.30
2022-11-29T15:38:05.985Z,335.20
2022-11-29T15:40:39.037Z,137.80
2022-11-29T15:43:33.791Z,52.90
2022-11-29T15:48:31.290Z,55.30
2022-11-29T15:51:17.334Z,74.70
2022-11-29T15:53:48.066Z,40.80
2022-11-29T15:56:30.808Z,52.40
2022-11-29T15:59:05.740Z,94.80
2022-11-29T16:01:42.599Z,71.20
2022-11-29T16:04:15.176Z,62.80
2022-11-29T16:06:52.070Z,49.50
2022-11-29T16:09:26.423Z,82.80
2022-11-29T16:11:54.614Z,39.70
2022-11-29T16:14:29.261Z,37.30
2022-11-29T16:16:58.411Z,57.20
2022-11-29T16:19:30.284Z,43.10
2022-11-29T16:22:01.184Z,60.40
2022-11-29T16:24:29.351Z,63.60
2022-11-29T16:26:59.960Z,49.60
2022-11-29T16:29:35.921Z,43.30
2022-11-29T16:32:24.925Z,39.00
2022-11-29T16:34:53.341Z,50.50
2022-11-29T16:37:25.184Z,55.80
2022-11-29T16:39:59.810Z,68.10
2022-11-29T16:42:31.840Z,98.10
2022-11-29T16:45:02.656Z,64.70
2022-11-29T16:47:32.031Z,58.20
2022-11-29T16:50:12.235Z,66.50
2022-11-29T16:52:40.123Z,74.20
2022-11-29T16:55:11.619Z,56.10
2022-11-29T16:57:44.143Z,66.10
2022-11-29T17:00:14.428Z,69.90
2022-11-29T17:02:42.268Z,60.80
2022-11-29T17:05:10.202Z,70.60
2022-11-29T17:07:58.933Z,71.40
2022-11-29T17:10:28.961Z,48.80
2022-11-29T17:13:00.304Z,59.00
2022-11-29T17:15:29.293Z,50.40
2022-11-29T17:17:57.090Z,54.80
2022-11-29T17:20:25.060Z,80.10
2022-11-29T17:22:52.925Z,67.70
2022-11-29T17:25:20.690Z,44.80
2022-11-29T17:27:49.221Z,49.80
2022-11-29T17:30:17.044Z,53.30
2022-11-29T17:32:46.297Z,51.30
2022-11-29T17:35:16.771Z,39.90
2022-11-29T17:37:44.989Z,46.30
2022-11-29T17:40:15.355Z,41.30
2022-11-29T17:42:43.283Z,53.10
2022-11-29T17:45:11.066Z,34.10
2022-11-29T17:47:45.375Z,43.40
2022-11-29T17:50:13.236Z,35.80
2022-11-29T17:52:41.174Z,32.00
2022-11-29T17:55:09.398Z,32.20
2022-11-29T17:57:38.685Z,28.30
2022-11-29T18:00:12.599Z,28.70
2022-11-29T18:05:09.853Z,37.90
2022-11-29T18:07:57.933Z,62.20
2022-11-29T18:10:26.683Z,143.80
2022-11-29T18:12:54.751Z,90.50
2022-11-29T18:15:22.669Z,88.00
2022-11-29T18:17:50.548Z,107.80
2022-11-29T18:20:18.459Z,85.90
2022-11-29T18:22:46.703Z,61.50
2022-11-29T18:25:37.549Z,55.70
2022-11-29T18:28:02.419Z,44.20
2022-11-29T18:30:30.582Z,49.00
2022-11-29T18:32:59.958Z,43.60
2022-11-29T18:35:28.130Z,37.10
2022-11-29T18:38:14.897Z,38.30
2022-11-29T18:40:45.998Z,39.90
2022-11-29T18:43:36.547Z,45.40
2022-11-29T18:46:13.116Z,78.40
2022-11-29T18:48:48.022Z,115.10
2022-11-29T18:51:22.111Z,109.40
2022-11-29T18:56:23.654Z,78.60
2022-11-29T18:58:58.491Z,74.40
2022-11-29T19:01:28.011Z,60.30
2022-11-29T19:03:57.569Z,80.00
2022-11-29T19:06:26.959Z,81.00
2022-11-29T19:08:54.925Z,75.70
2022-11-29T19:11:24.112Z,96.30
2022-11-29T19:14:03.321Z,92.50
2022-11-29T19:16:32.506Z,70.90
2022-11-29T19:19:00.763Z,56.10
2022-11-29T19:21:30.038Z,67.50
2022-11-29T19:23:59.178Z,71.50
2022-11-29T19:26:29.716Z,55.60
2022-11-29T19:28:58.755Z,75.10
2022-11-29T19:31:27.593Z,50.50
2022-11-29T19:33:56.139Z,55.10
2022-11-29T19:36:25.347Z,57.10
2022-11-29T19:38:58.872Z,55.40
2022-11-29T19:41:30.687Z,51.40
2022-11-29T19:43:59.934Z,42.00
2022-11-29T19:46:29.321Z,42.20
2022-11-29T19:48:58.105Z,47.30
2022-11-29T19:51:27.212Z,55.10
2022-11-29T19:53:56.341Z,44.10
2022-11-29T19:56:24.797Z,38.00
2022-11-29T19:58:52.720Z,38.10
2022-11-29T20:01:25.432Z,43.40
2022-11-29T20:03:55.300Z,40.50
2022-11-29T20:06:23.188Z,36.90
2022-11-29T20:08:51.210Z,38.50
2022-11-29T20:11:20.525Z,35.50
2022-11-29T20:13:59.119Z,38.90
2022-11-29T20:16:27.838Z,37.00
2022-11-29T20:18:56.133Z,39.20
2022-11-29T20:21:29.787Z,37.80
2022-11-29T20:23:59.903Z,37.60
2022-11-29T20:26:28.867Z,39.30
2022-11-29T20:29:04.345Z,44.80
2022-11-29T20:31:33.681Z,43.20
2022-11-29T20:34:02.367Z,44.30
2022-11-29T20:36:30.364Z,92.70
2022-11-29T20:39:08.867Z,75.30
2022-11-29T20:41:55.780Z,53.40
2022-11-29T20:44:34.586Z,43.50
2022-11-29T20:47:08.513Z,42.50
2022-11-29T20:49:36.469Z,44.90
2022-11-29T20:52:05.942Z,39.00
2022-11-29T20:54:33.945Z,50.20
2022-11-29T20:57:01.801Z,62.70
2022-11-29T20:59:29.740Z,44.80
2022-11-29T21:01:59.680Z,52.90
2022-11-29T21:04:27.425Z,69.10
2022-11-29T21:06:55.314Z,50.60
2022-11-29T21:09:23.411Z,56.00
2022-11-29T21:11:51.526Z,43.40
2022-11-29T21:14:19.701Z,39.90
2022-11-29T21:16:47.622Z,44.00
2022-11-29T21:19:19.942Z,44.80
2022-11-29T21:21:56.637Z,51.80
2022-11-29T21:24:27.399Z,43.30
2022-11-29T21:26:55.303Z,38.60
2022-11-29T21:29:23.524Z,39.00
2022-11-29T21:31:52.975Z,39.40
2022-11-29T21:34:21.291Z,41.90
2022-11-29T21:36:53.165Z,38.40
2022-11-29T21:39:24.381Z,41.10
2022-11-29T21:41:52.366Z,38.50
2022-11-29T21:44:20.200Z,38.00
2022-11-29T21:46:54.164Z,39.10
2022-11-29T21:49:22.054Z,39.30
2022-11-29T21:51:49.914Z,41.70
2022-11-29T21:54:17.733Z,41.80
2022-11-29T21:56:45.643Z,41.80
2022-11-29T21:59:13.424Z,41.20
2022-11-29T22:01:45.299Z,35.40
2022-11-29T22:04:13.630Z,37.60
2022-11-29T22:06:41.475Z,37.90
2022-11-29T22:09:09.260Z,37.40
2022-11-29T22:11:37.244Z,35.80
2022-11-29T22:14:14.051Z,42.90
2022-11-29T22:16:42.867Z,37.10
2022-11-29T22:19:12.527Z,39.70
2022-11-29T22:21:41.386Z,35.40
2022-11-29T22:24:09.908Z,37.30
2022-11-29T22:26:38.112Z,36.90
2022-11-29T22:29:06.837Z,35.90
2022-11-29T22:31:35.754Z,35.10
2022-11-29T22:34:03.468Z,32.40
2022-11-29T22:36:31.654Z,35.00
2022-11-29T22:39:00.906Z,34.10
2022-11-29T22:41:28.609Z,31.20
2022-11-29T22:43:56.527Z,34.40
2022-11-29T22:46:25.360Z,31.10
2022-11-29T22:49:00.718Z,30.30
2022-11-29T22:51:35.932Z,34.50
2022-11-29T22:54:05.377Z,30.40
2022-11-29T22:56:35.009Z,29.10
2022-11-29T22:59:02.872Z,26.40
2022-11-29T23:01:31.968Z,28.70
2022-11-29T23:04:00.936Z,30.10
2022-11-29T23:06:30.087Z,28.80
2022-11-29T23:08:59.169Z,29.80
2022-11-29T23:11:28.445Z,31.80
2022-11-29T23:13:56.377Z,31.90
2022-11-29T23:16:25.714Z,31.90
2022-11-29T23:18:54.396Z,28.90
2022-11-29T23:21:24.165Z,31.50
2022-11-29T23:23:56.394Z,30.20
2022-11-29T23:26:26.004Z,31.80
2022-11-29T23:28:53.967Z,31.90
2022-11-29T23:31:22.747Z,30.90
2022-11-29T23:33:51.094Z,28.90
2022-11-29T23:36:19.524Z,31.30
2022-11-29T23:38:49.378Z,27.10
2022-11-29T23:41:17.598Z,32.80
2022-11-29T23:43:45.484Z,28.80
2022-11-29T23:46:21.203Z,28.60
2022-11-29T23:48:49.203Z,27.00
2022-11-29T23:51:17.342Z,31.70
2022-11-29T23:53:46.845Z,28.40
2022-11-29T23:56:21.612Z,27.80
2022-11-29T23:58:57.098Z,27.00
